Time;durP1;ratioP1;P1;durP2;ratioP2;P2;SDS_P1;SDS_P2;PMS_P1;PMS_P2;Temp;Humidity;BMP_temperature;BMP_pressure;BME280_temperature;BME280_humidity;BME280_pressure;Samples;Min_cycle;Max_cycle;Signal;HPM_P1;HPM_P2
2022/01/16 00:04:13;;;;;;;13.50;12.10;;;17.60;96.70;;;;;;4206218;28;20250;-78
2022/01/16 00:06:17;;;;;;;13.10;11.57;;;17.60;96.70;;;;;;4231863;28;20263;-78
2022/01/16 00:08:19;;;;;;;13.70;12.02;;;17.60;96.60;;;;;;4232549;28;20969;-78
2022/01/16 00:10:24;;;;;;;15.23;11.65;;;17.60;96.70;;;;;;4232304;28;20205;-78
2022/01/16 00:12:29;;;;;;;14.93;12.52;;;17.50;96.60;;;;;;4232401;28;20255;-78
2022/01/16 00:14:32;;;;;;;14.15;12.10;;;17.50;96.60;;;;;;4232253;28;20233;-78
2022/01/16 00:16:35;;;;;;;14.88;12.15;;;17.50;96.70;;;;;;4232255;28;20214;-78
2022/01/16 00:18:49;;;;;;;13.57;12.18;;;17.50;96.70;;;;;;4232154;28;20615;-78
2022/01/16 00:20:52;;;;;;;13.13;11.75;;;17.50;96.70;;;;;;4226654;28;20221;-78
2022/01/16 00:22:55;;;;;;;13.60;12.15;;;17.50;96.50;;;;;;4231114;28;20267;-78
2022/01/16 00:24:59;;;;;;;13.43;11.60;;;17.50;96.60;;;;;;4230222;28;20221;-78
2022/01/16 00:27:01;;;;;;;14.73;12.38;;;17.50;96.60;;;;;;4232121;28;20353;-78
2022/01/16 00:29:04;;;;;;;13.45;11.30;;;17.50;97.00;;;;;;4232053;28;20214;-78
2022/01/16 00:31:07;;;;;;;13.45;12.05;;;17.50;96.60;;;;;;4232033;28;20225;-78
2022/01/16 00:33:11;;;;;;;14.32;12.00;;;17.50;96.70;;;;;;4231877;28;20229;-78
2022/01/16 00:35:14;;;;;;;13.30;11.65;;;17.50;96.50;;;;;;4231702;28;20374;-78
2022/01/16 00:37:16;;;;;;;13.90;12.38;;;17.50;96.60;;;;;;4218783;28;20206;-78
2022/01/16 00:39:18;;;;;;;13.40;12.00;;;17.40;96.60;;;;;;4232229;28;20202;-78
2022/01/16 00:41:22;;;;;;;13.80;12.23;;;17.50;96.60;;;;;;4231739;28;20662;-78
2022/01/16 00:43:24;;;;;;;14.23;11.48;;;17.50;96.60;;;;;;4231887;28;20665;-78
2022/01/16 00:45:28;;;;;;;13.32;11.80;;;17.50;96.60;;;;;;4226765;28;20349;-77
2022/01/16 00:47:31;;;;;;;14.40;12.55;;;17.50;96.60;;;;;;4235742;27;21006;-77
2022/01/16 00:49:38;;;;;;;14.02;12.23;;;17.40;96.50;;;;;;4232027;28;20247;-77
2022/01/16 00:51:41;;;;;;;13.95;11.65;;;17.50;96.50;;;;;;4231838;28;20255;-78
2022/01/16 00:53:44;;;;;;;14.23;12.48;;;17.40;96.50;;;;;;4231659;28;20662;-78
2022/01/16 00:55:46;;;;;;;13.68;12.20;;;17.50;96.60;;;;;;4231487;28;20247;-78
2022/01/16 00:57:49;;;;;;;13.75;12.32;;;17.40;96.40;;;;;;4231685;28;20205;-78
2022/01/16 00:59:51;;;;;;;13.52;12.05;;;17.50;96.50;;;;;;4231564;28;20666;-78
2022/01/16 01:01:53;;;;;;;13.52;12.13;;;17.40;96.50;;;;;;4231694;28;20626;-78
2022/01/16 01:03:57;;;;;;;13.32;11.90;;;17.40;96.50;;;;;;4225886;28;20202;-78
2022/01/16 01:06:01;;;;;;;13.30;11.93;;;17.40;96.50;;;;;;4228976;27;20564;-78
2022/01/16 01:08:04;;;;;;;13.95;12.05;;;17.40;96.60;;;;;;4224046;28;20251;-78
2022/01/16 01:10:09;;;;;;;13.88;12.00;;;17.40;96.50;;;;;;4231313;28;20210;-78
2022/01/16 01:12:23;;;;;;;15.02;12.52;;;17.40;96.50;;;;;;4236492;27;20247;-78
2022/01/16 01:14:37;;;;;;;13.07;11.73;;;17.40;96.50;;;;;;4231183;28;20209;-78
2022/01/16 01:16:50;;;;;;;14.32;11.70;;;17.40;96.50;;;;;;4231495;28;20289;-78
2022/01/16 01:18:52;;;;;;;13.38;11.98;;;17.40;96.40;;;;;;4231298;28;20221;-78
2022/01/16 01:20:56;;;;;;;13.63;11.93;;;17.40;96.40;;;;;;4230885;28;20221;-78
2022/01/16 01:23:00;;;;;;;13.93;12.48;;;17.40;96.50;;;;;;4215012;28;20226;-78
2022/01/16 01:25:02;;;;;;;13.30;11.75;;;17.30;96.50;;;;;;4231450;28;20206;-78
2022/01/16 01:27:13;;;;;;;13.10;11.70;;;17.30;96.80;;;;;;4227944;28;21003;-78
2022/01/16 01:29:18;;;;;;;14.02;12.00;;;17.30;96.50;;;;;;4227639;28;20221;-78
2022/01/16 01:31:20;;;;;;;13.98;12.48;;;17.30;96.40;;;;;;4231151;28;20255;-77
2022/01/16 01:33:25;;;;;;;15.10;12.25;;;17.30;96.40;;;;;;4231094;28;20210;-78
2022/01/16 01:35:28;;;;;;;13.60;12.15;;;17.30;96.50;;;;;;4230311;28;20225;-78
2022/01/16 01:37:30;;;;;;;13.80;12.15;;;17.30;96.50;;;;;;4218964;28;20235;-77
2022/01/16 01:39:34;;;;;;;14.35;12.00;;;17.30;96.50;;;;;;4229954;28;20210;-78
2022/01/16 01:41:36;;;;;;;14.10;12.02;;;17.30;96.60;;;;;;4230093;28;20666;-78
2022/01/16 01:52:58;;;;;;;13.02;11.63;;;17.30;96.40;;;;;;4229900;28;20201;-78
2022/01/16 01:55:02;;;;;;;14.38;12.63;;;17.30;96.40;;;;;;4230824;28;20221;-78
2022/01/16 01:57:05;;;;;;;14.32;12.30;;;17.30;96.40;;;;;;4230896;28;20243;-78
2022/01/16 01:59:08;;;;;;;14.40;12.35;;;17.30;96.40;;;;;;4230806;28;20290;-78
2022/01/16 02:01:11;;;;;;;12.68;11.38;;;17.30;96.40;;;;;;4230900;28;20215;-78
2022/01/16 02:03:19;;;;;;;14.38;12.27;;;17.30;96.50;;;;;;4229969;28;20218;-78
2022/01/16 02:05:21;;;;;;;13.32;11.85;;;17.30;96.40;;;;;;4217255;28;20280;-78
2022/01/16 02:07:24;;;;;;;14.30;12.52;;;17.30;96.50;;;;;;4230346;28;20209;-78
2022/01/16 02:09:27;;;;;;;13.57;12.15;;;17.30;96.40;;;;;;4224188;28;20658;-78
2022/01/16 02:11:32;;;;;;;13.30;12.00;;;17.30;96.40;;;;;;4235950;27;20205;-78
2022/01/16 02:13:47;;;;;;;14.20;11.90;;;17.30;96.40;;;;;;4230257;28;20250;-78
2022/01/16 02:32:45;;;;;;;13.43;12.02;;;17.20;96.40;;;;;;4226938;28;20255;-77
2022/01/16 02:34:47;;;;;;;13.88;11.93;;;17.20;96.50;;;;;;4227285;28;20264;-78
2022/01/16 02:36:51;;;;;;;13.85;11.63;;;17.20;96.50;;;;;;4225422;28;20222;-78
2022/01/16 02:39:00;;;;;;;13.73;11.98;;;17.20;96.40;;;;;;4230533;28;20255;-78
2022/01/16 02:41:04;;;;;;;14.38;12.88;;;17.20;96.50;;;;;;4230605;28;20213;-78
2022/01/16 02:43:07;;;;;;;12.50;10.88;;;17.20;96.40;;;;;;4230398;28;20213;-78
2022/01/16 02:45:16;;;;;;;14.60;12.20;;;17.20;96.50;;;;;;4215637;28;20222;-78
2022/01/16 02:47:20;;;;;;;13.90;11.93;;;17.20;96.40;;;;;;4218737;28;20251;-78
2022/01/16 02:49:25;;;;;;;13.48;11.73;;;17.20;96.40;;;;;;4234230;28;20205;-78
2022/01/16 02:51:29;;;;;;;13.18;11.40;;;17.20;96.40;;;;;;4233913;28;20630;-78
2022/01/16 02:53:31;;;;;;;14.48;11.90;;;17.20;96.50;;;;;;4233844;28;20217;-78
2022/01/16 02:55:35;;;;;;;13.52;12.10;;;17.20;96.40;;;;;;4233636;28;20263;-78
2022/01/16 02:57:37;;;;;;;13.40;12.00;;;17.20;96.40;;;;;;4233364;28;20210;-78
2022/01/16 02:59:40;;;;;;;13.30;11.90;;;17.20;96.40;;;;;;4233596;28;20218;-78
2022/01/16 03:01:43;;;;;;;13.05;11.60;;;17.20;96.40;;;;;;4233591;28;20619;-78
2022/01/16 03:03:45;;;;;;;12.60;11.27;;;17.20;96.60;;;;;;4233546;28;20210;-78
2022/01/16 03:05:49;;;;;;;13.45;10.98;;;17.20;96.50;;;;;;4233435;28;20626;-78
2022/01/16 03:07:52;;;;;;;13.05;11.45;;;17.10;96.40;;;;;;4233419;28;20228;-78
2022/01/16 03:10:13;;;;;;;13.40;11.68;;;17.20;96.50;;;;;;4227130;28;20209;-78
2022/01/16 03:12:16;;;;;;;14.10;11.75;;;17.20;96.50;;;;;;4239204;27;20618;-78
2022/01/16 03:14:21;;;;;;;13.32;11.35;;;17.10;96.40;;;;;;4233397;28;20221;-78
2022/01/16 03:16:24;;;;;;;13.57;11.65;;;17.10;96.70;;;;;;4226358;28;20268;-78
2022/01/16 03:23:06;;;;;;;12.90;11.13;;;17.10;96.40;;;;;;4218415;28;20175;-78
2022/01/16 03:25:09;;;;;;;12.75;11.30;;;17.10;96.40;;;;;;4233535;28;20623;-78
2022/01/16 03:27:14;;;;;;;13.25;11.85;;;17.10;96.50;;;;;;4233393;28;20210;-78
2022/01/16 03:29:18;;;;;;;13.25;11.27;;;17.10;96.40;;;;;;4233202;28;20213;-78
2022/01/16 03:31:20;;;;;;;13.30;11.70;;;17.10;96.50;;;;;;4233434;28;20225;-77
2022/01/16 03:33:23;;;;;;;13.27;11.80;;;17.10;96.50;;;;;;4233276;28;20267;-77
2022/01/16 03:35:25;;;;;;;14.55;11.45;;;17.10;96.50;;;;;;4233265;28;20206;-78
2022/01/16 03:37:28;;;;;;;12.85;11.30;;;17.10;96.50;;;;;;4233100;28;20225;-78
2022/01/16 03:39:30;;;;;;;14.43;11.40;;;17.00;96.40;;;;;;4232784;28;20274;-78
2022/01/16 03:41:34;;;;;;;14.27;11.70;;;17.00;96.40;;;;;;4233018;28;20232;-78
2022/01/16 03:43:36;;;;;;;13.27;11.45;;;17.10;96.40;;;;;;4233015;28;20299;-78
2022/01/16 03:45:41;;;;;;;13.43;12.07;;;17.10;96.80;;;;;;4233238;28;20285;-78
2022/01/16 03:47:44;;;;;;;12.82;11.27;;;17.10;96.50;;;;;;4233028;28;20227;-78
2022/01/16 03:49:46;;;;;;;13.57;12.00;;;17.10;96.40;;;;;;4232739;28;20255;-77
2022/01/16 03:51:50;;;;;;;12.43;10.82;;;17.00;96.50;;;;;;4233213;28;20206;-78
2022/01/16 03:53:52;;;;;;;13.20;11.75;;;17.10;96.50;;;;;;4232611;28;20206;-78
2022/01/16 03:55:55;;;;;;;12.73;11.32;;;17.00;96.40;;;;;;4232531;28;20205;-78
2022/01/16 03:57:57;;;;;;;14.18;11.93;;;17.10;96.50;;;;;;4231391;28;20255;-78
2022/01/16 04:00:00;;;;;;;15.00;12.05;;;17.00;96.50;;;;;;4232728;28;20258;-78
2022/01/16 04:02:05;;;;;;;13.23;11.48;;;17.00;96.50;;;;;;4232694;27;20213;-78
2022/01/16 04:04:07;;;;;;;13.48;11.75;;;17.00;96.40;;;;;;4232964;28;20255;-78
2022/01/16 04:06:10;;;;;;;12.40;11.10;;;17.00;96.50;;;;;;4232679;28;20271;-78
2022/01/16 04:08:12;;;;;;;13.35;11.60;;;17.00;96.50;;;;;;4232013;28;20263;-78
2022/01/16 04:10:15;;;;;;;12.65;11.30;;;17.00;96.50;;;;;;4226318;28;20263;-78
2022/01/16 04:12:21;;;;;;;12.50;11.20;;;17.00;96.50;;;;;;4232574;28;20258;-78
2022/01/16 04:15:31;;;;;;;12.93;11.50;;;17.00;96.60;;;;;;4233051;27;20218;-78
2022/01/16 04:16:47;;;;;;;13.27;11.45;;;17.00;96.50;;;;;;4232137;28;20298;-78
2022/01/16 04:18:51;;;;;;;13.52;11.52;;;17.00;96.50;;;;;;4232214;28;20221;-78
2022/01/16 04:20:54;;;;;;;13.82;11.20;;;17.00;96.50;;;;;;4232310;28;20258;-78
2022/01/16 04:22:56;;;;;;;14.15;11.32;;;17.00;96.50;;;;;;4227879;28;20666;-78
2022/01/16 04:24:58;;;;;;;13.00;11.45;;;17.00;96.60;;;;;;4226411;28;20213;-78
2022/01/16 04:27:01;;;;;;;12.88;11.43;;;16.90;96.50;;;;;;4232700;28;20222;-78
2022/01/16 04:29:04;;;;;;;13.23;11.35;;;16.90;96.50;;;;;;4232071;28;20263;-78
2022/01/16 04:31:06;;;;;;;14.18;12.27;;;16.90;96.50;;;;;;4232228;28;20221;-79
2022/01/16 04:33:09;;;;;;;15.10;11.75;;;16.90;96.50;;;;;;4231832;28;20285;-78
2022/01/16 04:35:13;;;;;;;15.02;11.85;;;16.90;96.50;;;;;;4232309;28;20588;-78
2022/01/16 04:37:15;;;;;;;14.18;11.43;;;16.90;96.90;;;;;;4232217;28;20282;-78
2022/01/16 04:39:20;;;;;;;14.85;12.02;;;16.90;96.50;;;;;;4232223;28;20210;-78
2022/01/16 04:43:52;;;;;;;13.45;11.75;;;16.90;96.90;;;;;;4227477;28;20558;-78
2022/01/16 04:45:54;;;;;;;13.45;11.52;;;16.90;96.50;;;;;;4223413;28;20231;-78
2022/01/16 04:47:57;;;;;;;13.48;11.93;;;16.90;96.50;;;;;;4231904;28;20205;-78
2022/01/16 04:49:59;;;;;;;13.30;11.57;;;16.90;96.60;;;;;;4231920;28;20210;-78
2022/01/16 04:52:03;;;;;;;14.07;11.73;;;16.90;96.60;;;;;;4231618;28;20214;-78
2022/01/16 04:54:06;;;;;;;13.00;11.65;;;16.90;96.60;;;;;;4232009;28;20210;-78
2022/01/16 04:56:09;;;;;;;14.63;12.02;;;16.80;96.50;;;;;;4232025;28;20554;-78
2022/01/16 04:58:11;;;;;;;13.98;11.95;;;16.80;96.50;;;;;;4225874;28;20234;-78
2022/01/16 05:00:16;;;;;;;13.23;11.00;;;16.80;96.50;;;;;;4231864;28;20206;-78
2022/01/16 05:02:18;;;;;;;14.07;11.52;;;16.80;96.50;;;;;;4232177;28;20263;-78
2022/01/16 05:04:20;;;;;;;14.98;11.85;;;16.80;96.50;;;;;;4225870;28;20270;-78
2022/01/16 05:06:23;;;;;;;13.85;11.48;;;16.80;96.50;;;;;;4229776;28;20221;-78
2022/01/16 05:08:28;;;;;;;14.30;12.68;;;16.80;96.50;;;;;;4231494;28;20224;-78
2022/01/16 05:10:31;;;;;;;13.55;12.15;;;16.80;96.50;;;;;;4233574;27;20214;-78
2022/01/16 05:12:36;;;;;;;13.85;11.73;;;16.80;96.50;;;;;;4234784;27;20267;-78
2022/01/16 05:16:58;;;;;;;15.38;12.55;;;16.80;96.50;;;;;;4215513;28;20210;-78
2022/01/16 05:19:01;;;;;;;13.30;11.90;;;16.80;96.50;;;;;;4231456;28;20225;-78
2022/01/16 05:21:04;;;;;;;15.40;12.10;;;16.80;96.50;;;;;;4231451;28;20719;-78
2022/01/16 05:23:06;;;;;;;14.55;11.80;;;16.80;96.50;;;;;;4231445;28;20274;-78
2022/01/16 05:25:14;;;;;;;14.15;11.70;;;16.70;96.50;;;;;;4231469;28;20213;-78
2022/01/16 05:27:16;;;;;;;14.73;11.35;;;16.70;96.50;;;;;;4231403;28;20266;-78
2022/01/16 05:29:19;;;;;;;13.82;11.77;;;16.70;96.50;;;;;;4231149;28;20259;-78
2022/01/16 05:31:21;;;;;;;14.73;11.73;;;16.70;96.50;;;;;;4231505;28;20218;-77
2022/01/16 05:33:24;;;;;;;14.52;11.73;;;16.70;96.50;;;;;;4231373;28;20214;-78
2022/01/16 05:35:26;;;;;;;13.70;11.70;;;16.70;96.50;;;;;;4231267;28;20206;-78
2022/01/16 05:37:28;;;;;;;13.88;11.80;;;16.70;96.50;;;;;;4231209;28;20582;-78
2022/01/16 05:39:32;;;;;;;15.00;12.65;;;16.70;96.50;;;;;;4231109;28;20201;-78
2022/01/16 05:41:35;;;;;;;14.15;11.77;;;16.70;96.50;;;;;;4230904;28;20262;-78
2022/01/16 05:43:38;;;;;;;15.20;11.95;;;16.70;96.50;;;;;;4226718;28;20210;-78
2022/01/16 05:45:40;;;;;;;15.40;12.65;;;16.70;96.60;;;;;;4220628;28;20251;-78
2022/01/16 05:47:43;;;;;;;15.85;12.32;;;16.70;96.50;;;;;;4231239;28;20229;-78
2022/01/16 05:49:45;;;;;;;14.70;11.73;;;16.70;96.50;;;;;;4231208;28;20650;-78
2022/01/16 05:51:47;;;;;;;14.52;12.63;;;16.70;96.50;;;;;;4231346;28;20657;-78
2022/01/16 05:53:51;;;;;;;13.87;12.10;;;16.70;96.50;;;;;;4231082;28;20205;-78
2022/01/16 05:55:53;;;;;;;16.42;12.48;;;16.70;96.50;;;;;;4230771;28;20263;-78
2022/01/16 05:57:57;;;;;;;13.15;11.65;;;16.70;96.50;;;;;;4231090;28;20225;-78
2022/01/16 05:59:59;;;;;;;15.20;12.25;;;16.70;96.50;;;;;;4231057;28;20250;-78
2022/01/16 06:02:02;;;;;;;13.45;11.85;;;16.70;96.50;;;;;;4231268;28;20678;-78
2022/01/16 06:04:04;;;;;;;13.38;11.63;;;16.70;96.50;;;;;;4231063;28;20654;-78
2022/01/16 06:06:07;;;;;;;14.55;11.93;;;16.70;96.60;;;;;;4230773;28;20217;-78
2022/01/16 06:08:12;;;;;;;15.38;12.63;;;16.70;96.60;;;;;;4230848;28;20271;-78
2022/01/16 06:10:14;;;;;;;13.65;12.00;;;16.70;96.60;;;;;;4219788;28;20222;-78
2022/01/16 06:12:16;;;;;;;14.65;12.18;;;16.70;96.70;;;;;;4227753;27;20276;-78
2022/01/16 06:14:20;;;;;;;15.05;12.55;;;16.70;96.70;;;;;;4228159;28;20283;-78
2022/01/16 06:16:22;;;;;;;15.35;12.45;;;16.70;96.60;;;;;;4230789;28;20263;-78
2022/01/16 06:18:25;;;;;;;14.27;11.80;;;16.70;96.70;;;;;;4230988;28;20229;-78
2022/01/16 06:20:27;;;;;;;13.98;12.35;;;16.70;96.60;;;;;;4230882;28;20206;-78
2022/01/16 06:22:29;;;;;;;15.90;11.82;;;16.60;96.70;;;;;;4234086;28;20213;-78
2022/01/16 06:24:32;;;;;;;15.55;12.45;;;16.60;96.70;;;;;;4234858;28;20263;-78
2022/01/16 06:26:34;;;;;;;15.48;12.80;;;16.60;97.10;;;;;;4234020;28;20213;-78
2022/01/16 06:28:36;;;;;;;14.07;11.93;;;16.60;96.80;;;;;;4234248;28;20251;-78
2022/01/16 06:30:41;;;;;;;15.32;12.52;;;16.60;96.70;;;;;;4234202;28;20263;-78
2022/01/16 06:32:43;;;;;;;14.48;12.18;;;16.70;96.80;;;;;;4230352;28;20225;-78
2022/01/16 06:34:45;;;;;;;15.57;12.38;;;16.70;96.80;;;;;;4220321;28;20215;-78
2022/01/16 06:36:48;;;;;;;15.98;12.38;;;16.60;96.70;;;;;;4232874;28;20290;-78
2022/01/16 06:38:52;;;;;;;15.77;13.00;;;16.60;96.70;;;;;;4234083;28;20702;-78
2022/01/16 06:40:55;;;;;;;14.52;12.15;;;16.60;96.70;;;;;;4234413;28;20235;-78
2022/01/16 06:42:57;;;;;;;15.25;12.18;;;16.60;96.80;;;;;;4234032;28;20214;-78
2022/01/16 06:44:59;;;;;;;16.27;12.57;;;16.70;96.80;;;;;;4219036;28;20612;-78
2022/01/16 06:47:04;;;;;;;15.10;12.27;;;16.60;96.80;;;;;;4234107;28;20222;-78
2022/01/16 06:49:06;;;;;;;15.45;12.55;;;16.60;96.80;;;;;;4233677;28;20209;-78
2022/01/16 06:51:09;;;;;;;15.32;12.55;;;16.60;96.80;;;;;;4227443;28;20218;-78
2022/01/16 06:53:11;;;;;;;13.73;12.07;;;16.60;96.80;;;;;;4224022;28;20217;-78
2022/01/16 06:55:13;;;;;;;14.35;12.85;;;16.60;96.80;;;;;;4237809;27;20262;-78
2022/01/16 06:57:16;;;;;;;14.95;12.15;;;16.60;96.90;;;;;;4248395;27;20299;-78
2022/01/16 06:59:18;;;;;;;16.00;13.35;;;16.60;96.80;;;;;;4248704;27;20272;-78
2022/01/16 07:01:20;;;;;;;17.05;12.85;;;16.60;96.80;;;;;;4232137;28;20214;-78
2022/01/16 07:03:24;;;;;;;15.45;13.13;;;16.60;96.80;;;;;;4234925;27;20617;-78
2022/01/16 07:05:26;;;;;;;13.65;11.98;;;16.60;96.80;;;;;;4232048;28;20271;-77
2022/01/16 07:07:29;;;;;;;14.48;11.73;;;16.60;96.90;;;;;;4232218;28;20206;-78
2022/01/16 07:09:31;;;;;;;15.75;12.32;;;16.60;96.90;;;;;;4237172;27;20201;-78
2022/01/16 07:11:33;;;;;;;14.93;12.38;;;16.50;96.90;;;;;;4239676;27;20205;-78
2022/01/16 07:13:36;;;;;;;14.68;12.40;;;16.60;96.90;;;;;;4248206;27;20259;-78
2022/01/16 07:15:38;;;;;;;14.23;12.33;;;16.50;96.90;;;;;;4248422;27;20209;-78
2022/01/16 07:17:40;;;;;;;14.63;12.48;;;16.50;96.90;;;;;;4248366;27;20274;-78
2022/01/16 07:19:44;;;;;;;14.55;12.18;;;16.60;96.90;;;;;;4248212;27;20250;-78
2022/01/16 07:21:47;;;;;;;14.77;12.35;;;16.60;97.00;;;;;;4248007;27;20209;-78
2022/01/16 07:23:49;;;;;;;13.85;11.70;;;16.50;96.90;;;;;;4248309;27;20201;-79
2022/01/16 07:25:53;;;;;;;13.70;11.98;;;16.50;96.90;;;;;;4247804;27;20209;-78
2022/01/16 07:27:55;;;;;;;16.50;13.23;;;16.50;96.90;;;;;;4248069;27;20205;-77
2022/01/16 07:29:58;;;;;;;15.50;12.07;;;16.50;96.90;;;;;;4233637;27;20209;-78
2022/01/16 07:32:01;;;;;;;15.05;12.70;;;16.50;97.00;;;;;;4231337;28;20221;-78
2022/01/16 07:34:03;;;;;;;14.98;11.85;;;16.50;97.30;;;;;;4245022;27;20238;-78
2022/01/16 07:36:07;;;;;;;13.77;12.20;;;16.50;97.00;;;;;;4235946;27;20217;-78
2022/01/16 07:38:10;;;;;;;14.75;12.00;;;16.50;97.00;;;;;;4239036;27;20213;-78
2022/01/16 07:40:13;;;;;;;14.18;11.95;;;16.50;97.00;;;;;;4231862;28;20218;-78
2022/01/16 07:42:16;;;;;;;13.20;11.38;;;16.50;97.00;;;;;;4238109;27;20217;-78
2022/01/16 07:44:18;;;;;;;14.80;12.10;;;16.50;97.00;;;;;;4229475;28;20263;-78
2022/01/16 07:46:21;;;;;;;14.32;12.40;;;16.50;97.00;;;;;;4231691;28;20266;-78
2022/01/16 07:48:23;;;;;;;15.60;12.48;;;16.50;97.00;;;;;;4231405;28;20255;-78
2022/01/16 07:50:26;;;;;;;14.13;11.88;;;16.50;97.00;;;;;;4231207;28;20205;-78
2022/01/16 07:52:30;;;;;;;15.40;13.05;;;16.40;97.00;;;;;;4230365;28;20255;-76
2022/01/16 07:54:32;;;;;;;15.40;13.10;;;16.40;96.90;;;;;;4230271;27;20270;-76
2022/01/16 07:56:35;;;;;;;14.20;12.13;;;16.50;97.00;;;;;;4230281;27;20217;-75
2022/01/16 07:58:38;;;;;;;16.33;12.68;;;16.40;97.00;;;;;;4230055;28;20221;-75
2022/01/16 08:00:40;;;;;;;18.67;12.52;;;16.40;97.00;;;;;;4229930;28;20214;-75
2022/01/16 08:02:42;;;;;;;14.80;11.93;;;16.50;97.10;;;;;;4229901;28;20275;-76
2022/01/16 08:04:45;;;;;;;13.70;11.88;;;16.40;97.00;;;;;;4229962;28;20239;-75
2022/01/16 08:06:47;;;;;;;15.68;12.85;;;16.40;97.40;;;;;;4230168;28;21008;-75
2022/01/16 08:08:51;;;;;;;16.52;12.23;;;16.40;97.10;;;;;;4230051;28;20250;-76
2022/01/16 08:10:53;;;;;;;15.35;12.30;;;16.40;97.10;;;;;;4235053;27;20258;-76
2022/01/16 08:12:55;;;;;;;13.98;11.40;;;16.40;97.40;;;;;;4229839;28;20213;-75
2022/01/16 08:14:58;;;;;;;15.30;12.38;;;16.40;97.10;;;;;;4234319;27;20213;-75
2022/01/16 08:17:01;;;;;;;14.30;12.40;;;16.40;97.10;;;;;;4246835;27;20246;-75
2022/01/16 08:19:03;;;;;;;14.63;11.85;;;16.40;97.20;;;;;;4246457;27;20289;-75
2022/01/16 08:21:06;;;;;;;14.30;12.18;;;16.40;97.10;;;;;;4246849;27;20209;-75
2022/01/16 08:23:08;;;;;;;14.47;12.20;;;16.40;97.10;;;;;;4246377;27;20262;-76
2022/01/16 08:25:13;;;;;;;14.18;12.07;;;16.30;97.10;;;;;;4246486;27;20213;-75
2022/01/16 08:27:16;;;;;;;13.40;11.77;;;16.30;97.10;;;;;;4246798;27;20262;-75
2022/01/16 08:29:18;;;;;;;14.07;12.20;;;16.30;97.20;;;;;;4246959;27;20251;-75
2022/01/16 08:31:20;;;;;;;14.95;12.23;;;16.40;97.30;;;;;;4246589;27;20208;-75
2022/01/16 08:33:23;;;;;;;14.70;11.90;;;16.40;97.20;;;;;;4246950;27;20213;-75
2022/01/16 08:35:26;;;;;;;16.65;12.73;;;16.30;97.20;;;;;;4247034;27;20193;-75
2022/01/16 08:37:28;;;;;;;14.30;12.20;;;16.30;97.20;;;;;;4246107;27;20212;-75
2022/01/16 08:39:31;;;;;;;14.13;11.57;;;16.30;97.20;;;;;;4246492;27;20630;-75
2022/01/16 08:41:37;;;;;;;15.90;12.43;;;16.30;97.20;;;;;;4227418;27;20218;-76
2022/01/16 08:43:39;;;;;;;13.32;11.20;;;16.30;97.20;;;;;;4227114;28;20262;-75
2022/01/16 08:45:42;;;;;;;13.80;11.90;;;16.30;97.20;;;;;;4239618;27;20209;-75
2022/01/16 08:47:45;;;;;;;15.85;12.27;;;16.30;97.30;;;;;;4232748;27;20214;-75
2022/01/16 08:49:47;;;;;;;14.82;12.15;;;16.30;97.30;;;;;;4229117;28;20232;-75
2022/01/16 08:51:50;;;;;;;15.23;11.88;;;16.30;97.30;;;;;;4240400;27;20665;-75
2022/01/16 08:53:52;;;;;;;15.07;11.95;;;16.30;97.30;;;;;;4237009;27;20242;-75
2022/01/16 08:55:54;;;;;;;17.00;12.85;;;16.30;97.30;;;;;;4245937;27;20210;-76
2022/01/16 08:57:59;;;;;;;16.17;11.90;;;16.30;97.60;;;;;;4246096;27;20201;-75
2022/01/16 09:00:01;;;;;;;16.23;12.52;;;16.30;97.70;;;;;;4244314;27;20237;-75
2022/01/16 09:02:04;;;;;;;15.88;11.98;;;16.30;97.40;;;;;;4246394;27;20209;-75
2022/01/16 09:04:06;;;;;;;15.18;12.57;;;16.30;97.40;;;;;;4237673;27;20214;-75
2022/01/16 09:06:09;;;;;;;13.98;11.88;;;16.30;97.40;;;;;;4237051;27;20209;-75
2022/01/16 09:08:11;;;;;;;13.80;11.40;;;16.30;97.40;;;;;;4236824;27;20650;-75
2022/01/16 09:10:13;;;;;;;15.02;11.90;;;16.30;97.40;;;;;;4229034;28;20210;-75
2022/01/16 09:12:16;;;;;;;14.70;11.75;;;16.30;97.30;;;;;;4245159;27;20667;-76
2022/01/16 09:14:19;;;;;;;14.98;12.15;;;16.30;97.30;;;;;;4245573;27;20209;-75
2022/01/16 09:16:22;;;;;;;15.45;11.43;;;16.30;97.30;;;;;;4246066;27;20261;-75
2022/01/16 09:18:25;;;;;;;14.35;11.55;;;16.20;97.40;;;;;;4245231;27;20275;-75
2022/01/16 09:20:27;;;;;;;16.23;11.73;;;16.20;97.40;;;;;;4245457;27;20692;-75
2022/01/16 09:22:29;;;;;;;16.25;12.30;;;16.30;97.40;;;;;;4228968;28;20206;-75
2022/01/16 09:24:33;;;;;;;14.93;12.25;;;16.30;97.40;;;;;;4244873;27;20249;-75
2022/01/16 09:26:35;;;;;;;16.98;12.43;;;16.20;97.40;;;;;;4245306;27;20741;-76
2022/01/16 09:28:38;;;;;;;14.65;11.00;;;16.30;97.40;;;;;;4245177;27;20209;-75
2022/01/16 09:30:42;;;;;;;15.35;11.88;;;16.20;97.40;;;;;;4240365;27;20236;-75
2022/01/16 09:32:44;;;;;;;12.68;10.57;;;16.30;97.50;;;;;;4232726;27;20765;-75
2022/01/16 09:34:46;;;;;;;14.88;11.63;;;16.20;97.40;;;;;;4239771;27;20290;-75
2022/01/16 09:36:49;;;;;;;15.25;11.85;;;16.30;97.40;;;;;;4233376;27;20261;-75
2022/01/16 09:38:51;;;;;;;15.50;12.27;;;16.20;97.70;;;;;;4233839;27;20746;-76
2022/01/16 09:40:53;;;;;;;15.17;12.13;;;16.20;97.40;;;;;;4228871;28;20233;-76
2022/01/16 09:42:57;;;;;;;13.73;11.05;;;16.20;97.40;;;;;;4244754;27;20213;-75
2022/01/16 09:44:59;;;;;;;14.35;11.43;;;16.20;97.50;;;;;;4231491;27;20216;-75
2022/01/16 09:47:04;;;;;;;13.63;11.50;;;16.30;97.50;;;;;;4243956;27;20684;-76
2022/01/16 09:49:06;;;;;;;14.02;11.75;;;16.30;97.50;;;;;;4227244;28;20210;-75
2022/01/16 09:51:09;;;;;;;13.83;11.37;;;16.20;97.40;;;;;;4228478;28;20259;-75
2022/01/16 09:53:12;;;;;;;15.30;12.18;;;16.20;97.40;;;;;;4228627;28;20631;-76
2022/01/16 09:55:15;;;;;;;13.18;11.48;;;16.20;97.40;;;;;;4228853;28;20666;-75
2022/01/16 09:57:18;;;;;;;15.77;12.03;;;16.20;97.80;;;;;;4228230;28;20251;-75
2022/01/16 09:59:20;;;;;;;14.45;11.93;;;16.30;97.50;;;;;;4228487;28;20247;-75
2022/01/16 10:01:23;;;;;;;16.58;12.18;;;16.30;97.50;;;;;;4227922;28;20213;-75
2022/01/16 10:03:38;;;;;;;14.35;11.52;;;16.20;97.40;;;;;;4228115;28;20650;-75
2022/01/16 10:05:41;;;;;;;12.77;11.15;;;16.30;97.50;;;;;;4228260;28;20205;-75
2022/01/16 10:07:43;;;;;;;14.45;11.35;;;16.30;97.50;;;;;;4228416;28;20294;-75
2022/01/16 10:10:04;;;;;;;15.55;12.13;;;16.20;97.50;;;;;;4232197;28;20269;-75
2022/01/16 10:12:15;;;;;;;13.20;10.63;;;16.30;97.60;;;;;;4229723;27;20306;-76
2022/01/16 10:14:22;;;;;;;14.57;11.05;;;16.20;97.60;;;;;;4228170;28;20202;-75
2022/01/16 10:16:26;;;;;;;12.77;11.30;;;16.20;97.60;;;;;;4238080;28;20286;-75
2022/01/16 10:18:34;;;;;;;13.30;10.55;;;16.20;97.60;;;;;;4232523;28;20226;-75
2022/01/16 10:20:46;;;;;;;13.80;11.00;;;16.20;97.60;;;;;;4228091;28;20270;-75
2022/01/16 10:22:51;;;;;;;13.07;11.05;;;16.20;98.00;;;;;;4228002;28;20255;-76
2022/01/16 10:24:54;;;;;;;14.15;11.38;;;16.20;97.60;;;;;;4227797;28;20222;-75
2022/01/16 10:27:14;;;;;;;14.18;11.27;;;16.20;97.60;;;;;;4228293;28;20314;-75
2022/01/16 10:29:17;;;;;;;13.73;10.90;;;16.20;97.80;;;;;;4222974;28;20708;-76
2022/01/16 10:31:22;;;;;;;14.63;11.35;;;16.20;97.70;;;;;;4231643;28;20205;-75
2022/01/16 10:33:27;;;;;;;15.90;11.63;;;16.20;97.80;;;;;;4243772;28;20206;-76
2022/01/16 10:35:36;;;;;;;12.68;11.00;;;16.20;97.80;;;;;;4240862;28;20330;-75
2022/01/16 10:37:43;;;;;;;13.32;10.85;;;16.20;97.80;;;;;;4232297;28;20258;-75
2022/01/16 10:39:57;;;;;;;14.75;11.43;;;16.20;97.80;;;;;;4232057;28;20209;-75
2022/01/16 10:42:16;;;;;;;13.20;10.73;;;16.20;97.80;;;;;;4241021;28;20207;-76
2022/01/16 10:44:29;;;;;;;14.37;11.20;;;16.20;97.80;;;;;;4242763;28;20652;-76
2022/01/16 10:46:31;;;;;;;13.02;10.30;;;16.20;97.80;;;;;;4243053;28;20221;-75
2022/01/16 10:48:34;;;;;;;14.13;11.02;;;16.20;97.80;;;;;;4243815;28;20235;-75
2022/01/16 10:50:39;;;;;;;12.82;10.90;;;16.20;97.80;;;;;;4243383;28;20254;-75
2022/01/16 10:52:51;;;;;;;12.43;10.27;;;16.20;97.80;;;;;;4228643;28;20218;-75
2022/01/16 10:54:53;;;;;;;14.25;10.55;;;16.10;97.80;;;;;;4227995;28;20275;-75
2022/01/16 10:56:56;;;;;;;13.70;10.70;;;16.20;97.90;;;;;;4227508;28;20222;-75
2022/01/16 10:59:00;;;;;;;12.23;9.95;;;16.20;97.90;;;;;;4227795;28;20217;-75
2022/01/16 11:01:04;;;;;;;12.65;10.15;;;16.20;97.90;;;;;;4228027;28;20249;-75
2022/01/16 11:03:09;;;;;;;14.35;11.20;;;16.20;97.90;;;;;;4228122;28;20726;-76
2022/01/16 11:05:13;;;;;;;12.50;10.57;;;16.20;97.90;;;;;;4227909;28;20230;-76
2022/01/16 11:07:15;;;;;;;13.07;10.55;;;16.20;97.90;;;;;;4236201;27;20262;-75